Time;durP1;ratioP1;P1;durP2;ratioP2;P2;SDS_P1;SDS_P2;PMS_P1;PMS_P2;Temp;Humidity;BMP_temperature;BMP_pressure;BME280_temperature;BME280_humidity;BME280_pressure;Samples;Min_cycle;Max_cycle;Signal;HPM_P1;HPM_P2
2022/08/30 05:15:00;;;;;;;19.17;10.02;;;17.10;99.90;;;;;;4959295;28;20019;-75
2022/08/30 12:28:11;;;;;;;4.78;2.97;;;33.20;58.10;;;;;;4908952;29;20024;-74
2022/08/30 12:30:38;;;;;;;8.23;3.30;;;33.10;58.00;;;;;;4908164;29;20100;-74
2022/08/30 12:33:11;;;;;;;6.45;3.10;;;33.30;58.30;;;;;;4891909;29;20035;-74
2022/08/30 12:35:38;;;;;;;4.22;2.78;;;33.40;57.40;;;;;;4908513;29;20039;-74
2022/08/30 12:38:12;;;;;;;5.47;3.10;;;33.80;57.40;;;;;;4891953;29;20076;-74
2022/08/30 12:40:49;;;;;;;13.90;4.38;;;34.60;57.50;;;;;;4908155;29;20041;-75
2022/08/30 12:43:46;;;;;;;4.97;3.33;;;35.50;56.30;;;;;;4908473;29;20047;-75
2022/08/30 12:46:15;;;;;;;4.13;2.95;;;36.20;55.10;;;;;;4889094;29;20116;-74
2022/08/30 12:48:42;;;;;;;4.68;2.95;;;37.20;54.10;;;;;;4907712;29;20024;-74
2022/08/30 12:51:56;;;;;;;3.60;2.70;;;38.60;52.60;;;;;;4891723;29;20035;-75
2022/08/30 12:59:03;;;;;;;5.72;4.15;;;41.40;48.50;;;;;;4908563;29;20047;-74
2022/08/30 13:01:34;;;;;;;5.30;2.70;;;41.00;47.50;;;;;;4908181;29;20041;-74
2022/08/30 13:08:35;;;;;;;5.97;3.03;;;38.70;50.10;;;;;;4850225;29;20225;-74
2022/08/30 13:11:03;;;;;;;3.83;2.75;;;37.20;51.50;;;;;;4849735;29;20048;-73
2022/08/30 13:13:39;;;;;;;3.72;2.65;;;36.30;51.80;;;;;;4850599;29;20446;-74
2022/08/30 13:16:16;;;;;;;3.65;2.92;;;35.50;52.30;;;;;;4850476;29;20352;-73
2022/08/30 13:18:44;;;;;;;4.47;2.75;;;35.00;52.60;;;;;;4849689;29;20146;-74
2022/08/30 13:21:29;;;;;;;3.75;2.67;;;34.90;53.00;;;;;;4849977;29;20362;-73
2022/08/30 13:23:58;;;;;;;9.32;3.15;;;35.00;52.30;;;;;;4849242;29;20061;-73
2022/08/30 13:30:14;;;;;;;6.75;2.70;;;39.40;49.80;;;;;;4850194;29;20083;-74
2022/08/30 13:32:41;;;;;;;3.22;2.70;;;41.40;47.70;;;;;;4849443;29;20283;-76
2022/08/30 13:35:08;;;;;;;3.70;2.45;;;41.10;47.50;;;;;;4849871;29;20034;-73
2022/08/30 13:37:34;;;;;;;3.60;2.60;;;41.00;47.60;;;;;;4850112;29;20097;-75
2022/08/30 13:47:23;;;;;;;5.20;2.83;;;40.00;48.40;;;;;;4901264;29;20322;-75
2022/08/30 13:49:48;;;;;;;4.95;2.67;;;38.80;49.20;;;;;;4906783;29;20040;-74
2022/08/30 13:52:17;;;;;;;3.95;2.95;;;38.30;49.20;;;;;;4890745;29;20370;-74
2022/08/30 13:54:45;;;;;;;3.10;2.30;;;38.10;49.30;;;;;;4906834;29;20262;-74
2022/08/30 13:57:15;;;;;;;4.88;2.75;;;38.10;49.30;;;;;;4890669;29;20024;-74
2022/08/30 13:59:43;;;;;;;4.40;2.63;;;39.80;48.60;;;;;;4907435;29;20036;-73
2022/08/30 14:02:09;;;;;;;3.17;2.67;;;40.70;47.10;;;;;;4906929;29;20099;-75
2022/08/30 14:04:35;;;;;;;5.72;2.35;;;42.50;46.10;;;;;;4907151;29;20044;-74
2022/08/30 17:31:46;;;;;;;5.28;3.15;;;29.00;61.10;;;;;;4907964;29;20035;-74
2022/08/30 17:34:12;;;;;;;4.57;3.30;;;28.90;61.80;;;;;;4907108;29;20096;-74
2022/08/30 17:36:38;;;;;;;5.35;3.53;;;28.80;62.10;;;;;;4907574;29;20228;-74
2022/08/30 17:42:35;;;;;;;6.90;3.47;;;28.50;62.70;;;;;;4907995;29;20036;-74
2022/08/30 17:45:14;;;;;;;5.65;4.00;;;28.30;63.30;;;;;;4907167;29;20024;-73
2022/08/30 17:47:43;;;;;;;5.63;3.35;;;28.10;63.60;;;;;;4907485;29;20047;-73
2022/08/30 18:01:24;;;;;;;5.00;3.53;;;27.40;65.30;;;;;;4831950;29;20016;-75
2022/08/30 18:03:51;;;;;;;5.07;3.72;;;27.20;65.80;;;;;;4831686;29;20315;-75
2022/08/30 18:06:17;;;;;;;6.15;3.80;;;27.00;66.10;;;;;;4831045;29;20058;-75
2022/08/30 18:08:43;;;;;;;6.25;4.25;;;26.90;66.50;;;;;;4831795;29;20033;-75
2022/08/30 18:11:09;;;;;;;6.82;3.72;;;26.70;66.90;;;;;;4830882;29;20097;-74
2022/08/30 18:17:06;;;;;;;4.13;3.13;;;26.50;67.30;;;;;;4831030;29;20340;-74
2022/08/30 18:19:32;;;;;;;5.43;3.88;;;26.30;67.60;;;;;;4831656;29;20129;-74
2022/08/30 18:22:50;;;;;;;5.22;3.75;;;26.30;68.00;;;;;;4830404;29;20336;-76
2022/08/30 18:25:16;;;;;;;6.03;3.63;;;26.30;68.30;;;;;;4801426;29;20081;-74
2022/08/30 18:27:42;;;;;;;6.40;3.90;;;26.20;68.20;;;;;;4831344;29;20074;-74
2022/08/30 18:30:08;;;;;;;7.18;4.30;;;26.10;68.20;;;;;;4831745;29;20038;-75
2022/08/30 18:33:43;;;;;;;5.78;3.58;;;26.10;68.40;;;;;;4869598;29;20053;-74
2022/08/30 18:36:27;;;;;;;5.28;3.60;;;26.10;68.10;;;;;;4767773;30;20108;-74
2022/08/30 18:42:23;;;;;;;6.72;4.07;;;25.90;67.90;;;;;;4811684;29;20099;-74
2022/08/30 18:48:46;;;;;;;6.78;3.60;;;25.70;68.70;;;;;;4798421;30;20038;-74
